Station: Learmonth  

  Atmospheric Gas Attenuation - ITU Rec 676-11   ----------------- dB/100km -----------------
Date Time Temp RH % AH g/m3 Dew Point Wind Direction Speed kph Gust kph Barometer mB Rainfall Since 9am 24GHz 47GHz 76GHz 122GHz 134GHz 241GHz
08/05 09:20 25.5 34 8.05 8.5 26 30 1019.3 0 17.9 22.2 32.8 85.9 79.1 272.4
08/05 09:10 25.7 34 8.14 8.7 26 33 1019.2 0 18.1 22.3 33.0 86.5 79.9 275.2
08/05 09:00 25.3 36 8.43 9.2 28 39 1019.2 0 18.7 22.8 34.2 89.5 83.6 288.0
08/05 08:50 24.9 35 8.01 8.4 32 33 1019 0 17.8 22.3 32.9 86.1 79.3 272.7
08/05 08:40 25.2 35 8.15 8.7 30 33 1018.9 0 18.1 22.4 33.2 87.0 80.5 277.2
08/05 08:30 25.3 34 7.96 8.3 32 41 1018.8 0 17.7 22.1 32.6 85.2 78.3 269.4
08/05 08:20 25.2 33 7.68 7.8 32 37 1018.7 0 17.1 21.8 31.7 82.8 75.3 258.9
08/05 08:10 25.1 35 8.1 8.6 30 35 1018.6 0 18.0 22.3 33.1 86.7 80.0 275.5
08/05 08:00 25.1 33 7.64 7.7 32 41 1018.7 0 17.1 21.7 31.6 82.5 75.0 257.6
08/05 07:50 24.8 37 8.42 9.1 28 32 1018.6 0 18.7 22.9 34.3 89.9 84.0 289.2
08/05 07:40 24.7 37 8.37 9 24 28 1018.6 0 18.6 22.8 34.2 89.6 83.5 287.5
08/05 07:30 24.4 38 8.46 9.2 22 33 1018.4 0 18.8 23.0 34.6 90.7 84.8 292.2
08/05 07:20 24.1 42 9.19 10.4 20 26 1018.3 0 20.3 24.1 37.3 97.9 93.6 322.9
08/05 07:10 23.8 41 8.82 9.8 26 30 1018.1 0 19.6 23.7 36.1 94.7 89.6 308.9
08/05 07:00 23.5 43 9.09 10.2 22 32 1018 0 20.2 24.1 37.2 97.6 93.1 321.1
08/05 06:50 23.3 44 9.2 10.4 24 28 1017.8 0 20.4 24.3 37.7 98.9 94.6 326.4
08/05 06:40 23.3 46 9.62 11 22 26 1017.8 0 21.3 25.0 39.2 103.0 99.7 344.0
08/05 06:30 23.4 43 9.04 10.1 22 32 1017.7 0 20.1 24.1 37.1 97.3 92.6 319.4
08/05 06:20 23.2 47 9.77 11.3 20 24 1017.7 0 21.6 25.2 39.8 104.6 101.6 350.8
08/05 06:10 22.7 48 9.7 11.1 19 22 1017.6 0 21.5 25.2 39.8 104.5 101.4 350.0
08/05 06:00 21.3 56 10.44 12.2 9 22 1017.6 0 23.1 26.8 43.3 113.9 112.5 388.7
08/05 05:50 18.7 69 11.05 12.9 6 6 1017.7 0 24.5 28.6 47.3 124.4 124.5 430.2
08/05 05:40 17.7 74 11.16 13 7 9 1017.6 0 24.8 29.1 48.3 127.2 127.6 441.0
08/05 05:30 17.4 75 11.11 12.9 9 9 1017.5 0 24.7 29.1 48.3 127.1 127.4 440.3
08/05 05:20 17.9 72 10.99 12.8 9 9 1017.4 0 24.5 28.7 47.5 124.9 124.9 431.7
08/05 05:10 17.7 73 11.01 12.8 11 11 1017.4 0 24.5 28.8 47.7 125.5 125.5 433.8
08/05 05:00 17.5 74 11.03 12.8 9 11 1017.2 0 24.6 28.9 47.9 126.0 126.1 435.8
08/05 04:50 17.5 73 10.88 12.6 9 11 1017.1 0 24.3 28.7 47.2 124.3 124.0 428.6
08/05 04:40 17.5 72 10.73 12.4 9 9 1017.1 0 23.9 28.4 46.6 122.7 122.0 421.4
08/05 04:30 18 73 11.21 13.1 7 9 1016.8 0 24.9 29.0 48.3 127.1 127.7 441.4
08/05 04:20 18 73 11.21 13.1 7 7 1016.7 0 24.9 29.0 48.3 127.1 127.7 441.4
08/05 04:10 17.5 73 10.88 12.6 6 7 1016.7 0 24.3 28.6 47.2 124.3 124.0 428.4
08/05 04:00 17.8 72 10.93 12.7 7 9 1016.8 0 24.3 28.6 47.3 124.4 124.2 429.2
08/05 03:50 18 72 11.06 12.9 7 7 1016.9 0 24.6 28.8 47.7 125.5 125.6 434.3
08/05 03:40 17.9 73 11.15 13 7 9 1016.9 0 24.8 29.0 48.1 126.7 127.0 439.1
08/05 03:30 17.9 73 11.15 13 9 11 1016.9 0 24.8 29.0 48.1 126.7 127.0 439.1
08/05 03:20 17.7 74 11.16 13 9 11 1016.9 0 24.8 29.0 48.3 127.1 127.5 440.8
08/05 03:10 17.9 73 11.15 13 11 13 1016.9 0 24.8 29.0 48.1 126.7 127.0 439.1
08/05 03:00 18 73 11.21 13.1 9 11 1016.9 0 24.9 29.0 48.3 127.2 127.7 441.4
08/05 02:50 17.9 75 11.45 13.4 11 11 1016.9 0 25.4 29.5 49.4 130.0 131.2 453.5
08/05 02:40 18 75 11.52 13.5 13 13 1016.8 0 25.6 29.6 49.6 130.6 131.9 456.3
08/05 02:30 18.1 76 11.74 13.8 13 15 1016.7 0 26.0 29.9 50.5 132.9 134.8 466.3
08/05 02:20 18.3 76 11.88 14 15 15 1016.8 0 26.3 30.1 50.9 134.1 136.4 471.9
08/05 02:10 18.5 75 11.87 14 15 15 1016.7 0 26.3 30.0 50.8 133.7 135.9 470.2
08/05 02:00 18.6 73 11.62 13.7 11 13 1016.7 0 25.8 29.5 49.6 130.7 132.3 457.5
08/05 01:50 18.9 73 11.83 14 9 9 1016.7 0 26.2 29.8 50.3 132.5 134.6 465.8
08/05 01:40 19.1 72 11.8 13.9 11 11 1016.8 0 26.1 29.7 50.1 131.9 133.9 463.2
08/05 01:30 19 71 11.57 13.6 11 11 1016.8 0 25.6 29.3 49.2 129.5 130.9 452.8
08/05 01:20 18.8 71 11.43 13.4 11 11 1016.9 0 25.3 29.1 48.7 128.3 129.4 447.4
08/05 01:10 18.9 70 11.34 13.3 9 9 1016.9 0 25.1 29.0 48.3 127.1 128.0 442.5
08/05 01:00 18.9 70 11.34 13.3 9 11 1016.9 0 25.1 29.0 48.3 127.1 128.0 442.5
08/05 00:50 19.2 69 11.38 13.4 7 9 1016.9 0 25.2 28.9 48.3 127.1 128.0 442.7
08/05 00:40 19 70 11.41 13.4 7 9 1017 0 25.3 29.0 48.5 127.8 128.8 445.3
08/05 00:30 19.1 69 11.31 13.3 9 11 1017.1 0 25.1 28.8 48.1 126.5 127.3 440.0
08/05 00:20 19.2 68 11.21 13.2 7 9 1017.1 0 24.9 28.6 47.6 125.2 125.7 434.8
08/05 00:10 18.7 69 11.05 12.9 11 11 1017 0 24.5 28.5 47.2 124.3 124.4 430.0
08/05 00:00 19.1 68 11.15 13.1 9 11 1017 0 24.7 28.6 47.4 124.7 125.1 432.5
07/05 23:50 18.9 69 11.18 13.1 11 11 1017 0 24.8 28.7 47.6 125.4 125.8 435.0
07/05 23:40 19 69 11.24 13.2 11 11 1017 0 24.9 28.8 47.8 125.9 126.5 437.3
07/05 23:30 18.9 69 11.18 13.1 11 11 1017.1 0 24.8 28.7 47.6 125.4 125.8 435.0
07/05 23:20 19.2 68 11.21 13.2 9 11 1017.1 0 24.9 28.6 47.6 125.2 125.7 434.8
07/05 23:10 19.4 67 11.18 13.1 11 11 1017.1 0 24.8 28.5 47.3 124.6 125.0 432.3
07/05 23:00 19.9 65 11.17 13.1 9 9 1017.2 0 24.7 28.4 47.0 123.7 124.1 429.1
07/05 22:50 20.3 62 10.9 12.8 9 9 1017.2 0 24.1 27.8 45.7 120.2 119.9 414.5
07/05 22:40 20.7 60 10.8 12.7 9 9 1017.3 0 23.9 27.5 45.1 118.5 118.0 407.9
07/05 22:30 20.6 60 10.74 12.6 9 11 1017.4 0 23.8 27.5 44.9 118.1 117.4 405.7
07/05 22:20 20.5 60 10.68 12.5 9 11 1017.3 0 23.7 27.4 44.7 117.6 116.7 403.4
07/05 22:10 20 62 10.71 12.5 9 9 1017.3 0 23.7 27.6 45.1 118.6 117.9 407.4
07/05 22:00 19.9 63 10.82 12.7 9 11 1017.3 0 24.0 27.8 45.6 120.0 119.5 412.9
07/05 21:50 19.4 66 11.01 12.9 11 11 1017.2 0 24.4 28.3 46.7 122.8 122.8 424.4
07/05 21:40 19.3 67 11.11 13 13 13 1017.2 0 24.6 28.5 47.1 124.0 124.2 429.6
07/05 21:30 19.4 66 11.01 12.9 13 15 1017.3 0 24.4 28.3 46.7 122.8 122.8 424.4
07/05 21:20 19.4 66 11.01 12.9 13 15 1017.2 0 24.4 28.3 46.7 122.8 122.8 424.4
07/05 21:10 19.6 66 11.14 13.1 13 15 1017.2 0 24.7 28.4 47.1 123.9 124.2 429.3
07/05 21:00 19.5 68 11.41 13.4 15 17 1017.2 0 25.3 28.9 48.2 127.0 128.0 442.5
07/05 20:50 19.7 67 11.38 13.4 13 15 1017.1 0 25.2 28.8 48.0 126.3 127.2 440.0
07/05 20:40 20 66 11.41 13.5 11 13 1017.1 0 25.2 28.7 47.9 126.1 127.1 439.7
07/05 20:30 20.1 67 11.65 13.8 11 13 1016.9 0 25.7 29.1 48.8 128.6 130.2 450.3
07/05 20:20 20.6 66 11.81 14 9 11 1016.8 0 26.0 29.2 49.2 129.5 131.4 454.9
07/05 20:10 23.1 58 11.99 14.4 0 0 1016.5 0 26.3 28.6 48.3 127.3 129.6 448.7
07/05 20:00 23.1 58 11.99 14.4 0 0 1016.5 0 26.3 28.6 48.3 127.3 129.6 448.7
07/05 19:50 22.7 60 12.12 14.5 0 0 1016.5 0 26.6 29.0 49.1 129.4 132.0 457.0
07/05 19:40 22.2 62 12.17 14.6 0 0 1016.2 0 26.7 29.2 49.6 130.7 133.5 462.1
07/05 19:30 22.2 64 12.56 15.1 2 6 1016 0 27.5 29.8 51.2 134.9 138.6 480.3
07/05 19:20 23.7 57 12.19 14.7 6 6 1015.9 0 26.6 28.7 48.7 128.4 131.1 454.2
07/05 19:10 24.5 55 12.31 14.9 7 7 1015.7 0 26.8 28.7 48.7 128.3 131.3 455.0
07/05 19:00 24.7 55 12.45 15.1 7 9 1015.6 0 27.1 28.8 49.1 129.5 132.8 460.1
07/05 18:50 24.6 59 13.28 16.1 9 9 1015.7 0 28.9 30.2 52.5 138.5 143.9 498.8
07/05 18:40 24.7 63 14.26 17.2 7 9 1015.6 0 30.9 31.8 56.5 149.1 156.9 544.1
07/05 18:30 24.4 65 14.46 17.4 9 11 1015.3 0 31.4 32.2 57.5 151.8 160.2 555.7
07/05 18:20 24.5 63 14.1 17.2 11 11 1015.2 0 30.6 31.6 55.9 147.6 155.0 537.7
07/05 18:10 25 62 14.27 17.2 9 9 1015.2 0 30.9 31.7 56.3 148.5 156.3 542.4
07/05 18:00 25.6 61 14.52 17.5 11 13 1015.1 0 31.4 31.9 56.9 150.1 158.5 550.0
07/05 17:50 26.1 58 14.2 17.2 11 13 1014.9 0 30.7 31.1 55.2 145.7 153.1 531.4
07/05 17:40 26.6 55 13.84 16.8 13 15 1014.9 0 29.9 30.4 53.4 140.9 147.4 511.4
07/05 17:30 27.1 52 13.46 16.4 15 20 1014.8 0 29.1 29.6 51.6 136.0 141.5 490.9
07/05 17:20 27.3 50 13.08 16 17 17 1014.7 0 28.3 28.9 49.9 131.7 136.3 472.7
07/05 17:10 27.5 49 12.96 16.1 19 20 1014.7 0 28.0 28.7 49.3 130.1 134.4 466.2
07/05 17:00 27.7 49 13.11 16 17 22 1014.7 0 28.3 28.8 49.8 131.3 136.0 471.6
07/05 16:50 27.7 48 12.84 15.7 20 22 1014.7 0 27.7 28.4 48.8 128.6 132.6 459.7

Last Refresh: 08-May-2026 11:03:01

Bureau of Meteorology